Disclaimer

Please do not use the information listed here in-flight or in-navigation, as they are not provided to us by the airports but are provided by volunteers, so they might be outdated.

Search


Regions


Airport information page

Radio informations:
BRASILIA TWR - 118.45 MHz
BRASILIA METRO - 132.6 MHz
BRASILIA OPS - 122.5 MHz
Ground (GND) - 121.8 MHz
BRASILIA ATIS - 127.8 MHz
BRASILIA APP - 119.2 MHz

Airport informations:
Latitude: 15° 52' 15.96" S
Longitude: 047° 55' 07.05" W
Elevation: 3479 feet - 1060 meters
Operating hours: 24 hour operations
Operating agency: Military-civil joint use airport
Timezone: UTC-3(-2DT)
Fuel: Jet A1, without icing nhibitor.

100/130 octane gasoline, leaded, MIL-L-5572F (GREEN)

Runway information:
11R/29L - 10827 x 148 feet< - >3300 x 45 meters
11L/29R - 10499 x 148 feet< - >3200 x 45 meters

Recent METARs:
SBBR 172100Z 02005KT 350V050 9999 FEW035 FEW040TCU 25/18 Q1016
SBBR 172100Z 02005KT 350V050 9999 FEW035 FEW040TCU 25/18 Q1016
SBBR 172200Z 33003KT 300V010 9999 FEW035 FEW040TCU SCT100 24/18 Q1017

Airport on the map: